PILOTS ONLINE: 408    ATC ONLINE: 53

PANT - Annette Island Airport

Location

IATA ANN
City Annette
Country  United States
Latitude 55° 2' 32" N
Longitude 131° 34' 19" W
Elevation 119 ft
Type Medium Airport

Runways

02/20 5709 ft / 150 ft
12/30 7493 ft / 150 ft

Weather

METAR
2014/07/30 22:53
PANT 302253Z 22003KT 10SM SCT019 BKN075 17/12 A3028 RMK AO2 SLP253 T01720122 $
TAF
No TAF available

Outbound flights

Inbound flights